< Typhoon 195609 1956 Season Typhoon 195611 >
Typhoon 195610 (CHARLOTTE)
General InformationTrack Information on Google Maps || Disaster Info.ResourceGoogle EarthGE AnimationAtom FeedGeoJSON
Detalied Best Track (Time Zone = UTC)
Year Month Day Hour Lat. Long. Pressure (hPa) Wind (kt) Class Image Chart
1956 8 25 00 16.0 143.0 1006 0 2 -- Chart
1956 8 25 06 15.0 142.0 1004 0 2 -- Chart
1956 8 25 12 15.0 141.0 1004 0 2 -- Chart
1956 8 25 18 15.4 140.0 1004 0 2 -- Chart
1956 8 26 00 16.2 139.5 1004 0 2 -- Chart
1956 8 26 06 17.3 138.5 1002 0 2 -- Chart
1956 8 26 12 18.4 137.1 1004 0 2 -- Chart
1956 8 26 18 19.2 135.0 1002 0 2 -- Chart
1956 8 27 00 19.7 132.6 990 0 9 -- Chart
1956 8 27 06 19.4 131.4 990 0 9 -- Chart
1956 8 27 12 19.1 130.1 980 0 9 -- Chart
1956 8 27 18 18.5 128.9 975 0 9 -- Chart
1956 8 28 00 18.1 127.7 975 0 9 -- Chart
1956 8 28 06 17.7 126.3 975 0 9 -- Chart
1956 8 28 12 17.5 124.5 975 0 9 -- Chart
1956 8 28 18 18.0 122.7 980 0 9 -- Chart
1956 8 29 00 18.0 120.2 980 0 9 -- Chart
1956 8 29 06 17.7 118.5 980 0 9 -- Chart
1956 8 29 12 17.3 116.8 980 0 9 -- Chart
1956 8 29 18 17.3 115.3 980 0 9 -- Chart
1956 8 30 00 17.2 113.9 980 0 9 -- Chart
1956 8 30 06 17.1 112.4 980 0 9 -- Chart
1956 8 30 12 17.1 111.1 980 0 9 -- Chart
1956 8 30 18 17.2 109.8 980 0 9 -- Chart
1956 8 31 00 17.3 108.6 980 0 9 -- Chart
1956 8 31 06 17.4 107.7 980 0 9 -- Chart
1956 8 31 12 17.5 106.8 986 0 9 -- Chart
1956 8 31 18 17.6 105.8 988 0 9 -- Chart
1956 9 1 00 17.7 105.2 990 0 9 -- Chart
1956 9 1 06 18.0 105.0 990 0 9 -- Chart
1956 9 1 12 18.5 104.5 992 0 2 -- Chart
1956 9 1 18 19.0 104.0 995 0 2 -- Chart
1956 9 2 00 20.0 103.0 1000 0 2 -- Chart
Japan Meteorological Agency Best Track Data | Correction Date : 1989-06-01
< Typhoon 195609 1956 Season Typhoon 195611 >

Help